Time,TemperatureF,DewpointF,PressureIn,WindDirection,WindDirectionDegrees,WindSpeedMPH,WindSpeedGustMPH,Humidity,HourlyPrecipIn,Conditions,Clouds,dailyrainin,SolarRadiationWatts/m^2,SoftwareType,DateUTC
2013-03-02 00:00:00,58.3,49.3,29.93,NNW,348,6.0,11.0,72,0.00,,OVC070,0.00,0.00,VWS V14.00,2013-03-02 05:00:00,
2013-03-02 00:01:00,58.3,49.3,29.93,NNW,346,7.0,7.0,72,0.00,,OVC070,0.00,0.00,VWS V14.00,2013-03-02 05:01:00,
2013-03-02 00:06:00,58.2,49.2,29.93,NNW,330,4.0,10.0,72,0.00,,OVC070,0.00,0.00,VWS V14.00,2013-03-02 05:06:00,
2013-03-02 00:11:00,58.1,49.1,29.92,North,349,4.0,10.0,72,0.00,,OVC070,0.00,0.00,VWS V14.00,2013-03-02 05:11:00,
2013-03-02 00:16:00,58.0,49.4,29.93,NNW,334,6.0,9.0,73,0.00,,OVC070,0.00,0.00,VWS V14.00,2013-03-02 05:16:00,
2013-03-02 00:20:00,58.0,49.4,29.92,NNW,342,5.0,8.0,73,0.00,,OVC070,0.00,0.00,VWS V14.00,2013-03-02 05:20:00,
2013-03-02 00:26:00,57.9,49.3,29.93,NNW,335,2.0,9.0,73,0.00,,OVC070,0.00,0.00,VWS V14.00,2013-03-02 05:26:00,
2013-03-02 00:31:00,57.9,49.3,29.93,NNW,330,3.0,8.0,73,0.00,,OVC070,0.00,0.00,VWS V14.00,2013-03-02 05:31:00,
2013-03-02 00:36:00,57.9,49.3,29.93,NNW,328,4.0,6.0,73,0.00,,OVC070,0.00,0.00,VWS V14.00,2013-03-02 05:36:00,
2013-03-02 00:41:00,57.9,49.3,29.93,NNW,339,2.0,3.0,73,0.00,,OVC070,0.00,0.00,VWS V14.00,2013-03-02 05:41:00,
2013-03-02 00:46:00,57.9,49.3,29.93,NNW,335,4.0,7.0,73,0.00,,OVC070,0.00,0.00,VWS V14.00,2013-03-02 05:46:00,
2013-03-02 00:51:00,57.8,49.2,29.92,NNW,343,3.0,9.0,73,0.00,,OVC070,0.00,0.00,VWS V14.00,2013-03-02 05:51:00,
2013-03-02 00:56:00,57.8,49.2,29.92,NNW,348,11.0,12.0,73,0.00,,OVC070,0.00,0.00,VWS V14.00,2013-03-02 05:56:00,
2013-03-02 01:01:00,57.7,49.5,29.92,NNW,343,3.0,9.0,74,0.00,,OVC070,0.00,0.00,VWS V14.00,2013-03-02 06:01:00,
2013-03-02 01:06:00,57.6,49.4,29.92,NNW,330,1.0,7.0,74,0.00,,OVC070,0.00,0.00,VWS V14.00,2013-03-02 06:06:00,
2013-03-02 01:11:00,57.6,49.4,29.93,NW,325,3.0,6.0,74,0.00,,OVC070,0.00,0.00,VWS V14.00,2013-03-02 06:11:00,
2013-03-02 01:16:00,57.6,50.1,29.93,NNW,327,4.0,6.0,76,0.00,,OVC070,0.00,0.00,VWS V14.00,2013-03-02 06:16:00,
2013-03-02 01:21:00,57.5,49.7,29.93,NNW,331,4.0,6.0,75,0.00,,OVC070,0.00,0.00,VWS V14.00,2013-03-02 06:21:00,
2013-03-02 01:26:00,57.4,49.5,29.93,NNW,342,4.0,11.0,75,0.00,,OVC070,0.00,0.00,VWS V14.00,2013-03-02 06:26:00,
2013-03-02 01:31:00,57.3,49.1,29.93,NNW,343,7.0,11.0,74,0.00,,OVC070,0.00,0.00,VWS V14.00,2013-03-02 06:31:00,
2013-03-02 01:36:00,57.3,49.1,29.93,NNW,340,6.0,6.0,74,0.00,,OVC070,0.00,0.00,VWS V14.00,2013-03-02 06:36:00,
2013-03-02 01:41:00,57.2,49.0,29.93,NNW,332,5.0,11.0,74,0.00,,OVC070,0.00,0.00,VWS V14.00,2013-03-02 06:41:00,
2013-03-02 01:46:00,57.1,48.9,29.93,NNW,340,3.0,7.0,74,0.00,,OVC070,0.00,0.00,VWS V14.00,2013-03-02 06:46:00,
2013-03-02 01:51:00,57.1,48.9,29.92,NNW,346,4.0,10.0,74,0.00,,OVC070,0.00,0.00,VWS V14.00,2013-03-02 06:51:00,
2013-03-02 01:56:00,57.0,48.4,29.92,NNW,340,5.0,11.0,73,0.00,,OVC070,0.00,0.00,VWS V14.00,2013-03-02 06:56:00,
2013-03-02 02:01:00,56.9,47.6,29.92,NNW,333,7.0,10.0,71,0.00,,OVC070,0.00,0.00,VWS V14.00,2013-03-02 07:01:00,
2013-03-02 02:06:00,56.9,47.2,29.92,NNW,336,3.0,11.0,70,0.00,,OVC070,0.00,0.00,VWS V14.00,2013-03-02 07:06:00,
2013-03-02 02:11:00,56.9,47.2,29.92,NNW,335,4.0,11.0,70,0.00,,OVC070,0.00,0.00,VWS V14.00,2013-03-02 07:11:00,
2013-03-02 02:16:00,56.9,46.8,29.92,NNW,331,9.0,12.0,69,0.00,,OVC070,0.00,0.00,VWS V14.00,2013-03-02 07:16:00,
2013-03-02 02:21:00,56.9,46.8,29.92,NNW,344,11.0,12.0,69,0.00,,OVC070,0.00,0.00,VWS V14.00,2013-03-02 07:21:00,
2013-03-02 02:26:00,56.9,46.8,29.92,NNW,341,0.0,6.0,69,0.00,,OVC070,0.00,0.00,VWS V14.00,2013-03-02 07:26:00,
2013-03-02 02:31:00,56.8,46.8,29.92,NNW,340,4.0,9.0,69,0.00,,OVC070,0.00,0.00,VWS V14.00,2013-03-02 07:31:00,
2013-03-02 02:36:00,56.7,47.0,29.92,NNW,347,4.0,8.0,70,0.00,,OVC070,0.00,0.00,VWS V14.00,2013-03-02 07:36:00,
2013-03-02 02:41:00,56.7,47.0,29.91,NNW,331,5.0,6.0,70,0.00,,OVC070,0.00,0.00,VWS V14.00,2013-03-02 07:41:00,
2013-03-02 02:46:00,56.6,47.3,29.92,NNW,337,5.0,7.0,71,0.00,,OVC070,0.00,0.00,VWS V14.00,2013-03-02 07:46:00,
2013-03-02 02:51:00,56.5,47.2,29.92,NNW,338,2.0,5.0,71,0.00,,OVC070,0.00,0.00,VWS V14.00,2013-03-02 07:51:00,
2013-03-02 02:56:00,56.5,47.6,29.92,NNW,343,1.0,5.0,72,0.00,,OVC070,0.00,0.00,VWS V14.00,2013-03-02 07:56:00,
2013-03-02 03:01:00,56.4,47.5,29.92,NNW,338,6.0,8.0,72,0.00,,OVC070,0.00,0.00,VWS V14.00,2013-03-02 08:01:00,
2013-03-02 03:06:00,56.4,47.1,29.92,NNW,345,0.0,4.0,71,0.00,,OVC070,0.00,0.00,VWS V14.00,2013-03-02 08:06:00,
2013-03-02 03:11:00,56.4,47.5,29.92,NNW,345,7.0,7.0,72,0.00,,OVC070,0.00,0.00,VWS V14.00,2013-03-02 08:11:00,
2013-03-02 03:16:00,56.2,46.6,29.92,NNW,345,5.0,13.0,70,0.00,,OVC070,0.00,0.00,VWS V14.00,2013-03-02 08:16:00,
2013-03-02 03:21:00,56.3,47.0,29.92,NNW,346,2.0,9.0,71,0.00,,OVC070,0.00,0.00,VWS V14.00,2013-03-02 08:21:00,
2013-03-02 03:26:00,56.3,46.3,29.92,North,350,4.0,7.0,69,0.00,,OVC070,0.00,0.00,VWS V14.00,2013-03-02 08:26:00,
2013-03-02 03:31:00,56.3,45.9,29.92,North,360,0.0,7.0,68,0.00,,OVC070,0.00,0.00,VWS V14.00,2013-03-02 08:31:00,
2013-03-02 03:36:00,56.3,44.7,29.92,NNE,14,3.0,11.0,65,0.00,,OVC070,0.00,0.00,VWS V14.00,2013-03-02 08:36:00,
2013-03-02 03:41:00,56.4,44.0,29.92,North,360,1.0,10.0,63,0.00,,OVC070,0.00,0.00,VWS V14.00,2013-03-02 08:41:00,
2013-03-02 03:46:00,56.4,44.0,29.92,NNW,346,7.0,12.0,63,0.00,,OVC070,0.00,0.00,VWS V14.00,2013-03-02 08:46:00,
2013-03-02 03:51:00,56.3,43.5,29.92,NNE,19,5.0,10.0,62,0.00,,OVC070,0.00,0.00,VWS V14.00,2013-03-02 08:51:00,
2013-03-02 03:56:00,56.3,43.9,29.92,North,360,6.0,12.0,63,0.00,,OVC070,0.00,0.00,VWS V14.00,2013-03-02 08:56:00,
2013-03-02 04:01:00,56.3,43.5,29.92,NNW,346,3.0,10.0,62,0.00,,OVC070,0.00,0.00,VWS V14.00,2013-03-02 09:01:00,
2013-03-02 04:06:00,56.3,43.9,29.92,North,355,11.0,11.0,63,0.00,,OVC070,0.00,0.00,VWS V14.00,2013-03-02 09:06:00,
2013-03-02 04:11:00,56.3,44.3,29.92,NNW,342,6.0,11.0,64,0.00,,OVC070,0.00,0.00,VWS V14.00,2013-03-02 09:11:00,
2013-03-02 04:16:00,56.2,44.2,29.92,NNW,340,3.0,8.0,64,0.00,,OVC070,0.00,0.00,VWS V14.00,2013-03-02 09:16:00,
2013-03-02 04:21:00,56.2,44.2,29.92,North,355,3.0,14.0,64,0.00,,OVC070,0.00,0.00,VWS V14.00,2013-03-02 09:21:00,
2013-03-02 04:26:00,56.1,44.5,29.92,North,355,4.0,11.0,65,0.00,,OVC070,0.00,0.00,VWS V14.00,2013-03-02 09:26:00,
2013-03-02 04:32:00,56.1,44.9,29.92,North,351,1.0,6.0,66,0.00,,OVC070,0.00,0.00,VWS V14.00,2013-03-02 09:32:00,
2013-03-02 04:37:00,56.1,45.3,29.93,NNW,347,4.0,5.0,67,0.00,,OVC070,0.00,0.00,VWS V14.00,2013-03-02 09:37:00,
2013-03-02 04:42:00,56.0,45.2,29.92,North,349,6.0,8.0,67,0.00,,OVC070,0.00,0.00,VWS V14.00,2013-03-02 09:42:00,
2013-03-02 04:47:00,56.0,45.2,29.92,North,355,5.0,10.0,67,0.00,,OVC070,0.00,0.00,VWS V14.00,2013-03-02 09:47:00,
2013-03-02 04:52:00,56.0,45.6,29.93,NNW,344,7.0,7.0,68,0.00,,OVC070,0.00,0.00,VWS V14.00,2013-03-02 09:52:00,
2013-03-02 04:57:00,56.0,46.0,29.92,North,360,3.0,7.0,69,0.00,,OVC070,0.00,0.00,VWS V14.00,2013-03-02 09:57:00,
2013-03-02 05:02:00,56.0,46.0,29.92,North,355,5.0,9.0,69,0.00,,OVC070,0.00,0.00,VWS V14.00,2013-03-02 10:02:00,
2013-03-02 05:07:00,55.9,45.9,29.92,NNW,343,5.0,9.0,69,0.00,,OVC070,0.00,0.00,VWS V14.00,2013-03-02 10:07:00,
2013-03-02 05:12:00,55.9,45.9,29.93,North,9,12.0,13.0,69,0.00,,OVC070,0.00,0.00,VWS V14.00,2013-03-02 10:12:00,
2013-03-02 05:17:00,55.8,45.8,29.93,North,5,5.0,10.0,69,0.00,,OVC070,0.00,0.00,VWS V14.00,2013-03-02 10:17:00,
2013-03-02 05:22:00,55.8,46.2,29.93,NNW,347,4.0,7.0,70,0.00,,OVC070,0.00,0.00,VWS V14.00,2013-03-02 10:22:00,
2013-03-02 05:27:00,55.7,46.1,29.93,NNE,30,5.0,14.0,70,0.00,,OVC070,0.00,0.00,VWS V14.00,2013-03-02 10:27:00,
2013-03-02 05:32:00,55.7,46.1,29.93,North,355,6.0,11.0,70,0.00,,OVC070,0.00,0.00,VWS V14.00,2013-03-02 10:32:00,
2013-03-02 05:37:00,55.6,46.0,29.93,North,360,5.0,10.0,70,0.00,,OVC070,0.00,0.00,VWS V14.00,2013-03-02 10:37:00,
2013-03-02 05:42:00,55.6,46.0,29.93,NNE,17,11.0,15.0,70,0.00,,OVC070,0.00,0.00,VWS V14.00,2013-03-02 10:42:00,
2013-03-02 05:47:00,55.6,46.0,29.94,NNW,339,8.0,13.0,70,0.00,,OVC070,0.00,0.00,VWS V14.00,2013-03-02 10:47:00,
2013-03-02 05:52:00,55.5,45.9,29.94,NNW,340,9.0,10.0,70,0.00,,OVC070,0.00,0.00,VWS V14.00,2013-03-02 10:52:00,
2013-03-02 05:57:00,55.5,45.9,29.95,North,5,6.0,10.0,70,0.00,,OVC070,0.00,0.00,VWS V14.00,2013-03-02 10:57:00,
2013-03-02 06:02:00,55.5,45.9,29.95,North,355,5.0,11.0,70,0.00,,OVC070,0.00,0.00,VWS V14.00,2013-03-02 11:02:00,
2013-03-02 06:07:00,55.5,45.5,29.95,North,5,9.0,13.0,69,0.00,,OVC070,0.00,0.00,VWS V14.00,2013-03-02 11:07:00,
2013-03-02 06:12:00,55.5,45.9,29.96,NNW,329,6.0,15.0,70,0.00,,OVC070,0.00,0.00,VWS V14.00,2013-03-02 11:12:00,
2013-03-02 06:17:00,55.5,45.5,29.96,North,355,9.0,15.0,69,0.00,,OVC070,0.00,0.00,VWS V14.00,2013-03-02 11:17:00,
2013-03-02 06:22:00,55.4,45.4,29.96,NNW,348,11.0,19.0,69,0.00,,OVC070,0.00,0.00,VWS V14.00,2013-03-02 11:22:00,
2013-03-02 06:27:00,55.4,45.4,29.96,North,5,5.0,11.0,69,0.00,,OVC070,0.00,0.00,VWS V14.00,2013-03-02 11:27:00,
2013-03-02 06:32:00,55.3,45.3,29.96,NNW,336,5.0,16.0,69,0.00,,OVC070,0.00,0.00,VWS V14.00,2013-03-02 11:32:00,
2013-03-02 06:37:00,55.3,45.3,29.97,North,360,12.0,13.0,69,0.00,,OVC070,0.00,0.00,VWS V14.00,2013-03-02 11:37:00,
2013-03-02 06:42:00,55.3,45.7,29.97,North,5,6.0,7.0,70,0.00,,OVC070,0.00,0.00,VWS V14.00,2013-03-02 11:42:00,
2013-03-02 06:47:00,55.2,45.6,29.97,North,360,13.0,13.0,70,0.00,,OVC070,0.00,0.00,VWS V14.00,2013-03-02 11:47:00,
2013-03-02 06:52:00,55.0,45.4,29.97,NNE,23,14.0,17.0,70,0.00,,OVC070,0.00,0.00,VWS V14.00,2013-03-02 11:52:00,
2013-03-02 06:57:00,54.9,45.3,29.97,NNE,13,7.0,12.0,70,0.00,,OVC070,0.00,0.00,VWS V14.00,2013-03-02 11:57:00,
2013-03-02 07:02:00,55.0,45.8,29.98,NNE,16,13.0,15.0,71,0.00,,OVC070,0.00,0.00,VWS V14.00,2013-03-02 12:02:00,
2013-03-02 07:07:00,54.7,45.1,29.98,NNE,26,7.0,17.0,70,0.00,,OVC070,0.00,0.00,VWS V14.00,2013-03-02 12:07:00,
2013-03-02 07:12:00,54.6,45.4,29.98,North,5,6.0,9.0,71,0.00,,OVC070,0.00,5.00,VWS V14.00,2013-03-02 12:12:00,
2013-03-02 07:17:00,54.6,45.4,29.98,North,349,10.0,12.0,71,0.00,,OVC070,0.00,5.00,VWS V14.00,2013-03-02 12:17:00,
2013-03-02 07:22:00,54.5,44.9,29.98,NNE,19,14.0,16.0,70,0.00,,OVC070,0.00,5.00,VWS V14.00,2013-03-02 12:22:00,
2013-03-02 07:27:00,54.4,45.2,29.98,North,5,7.0,13.0,71,0.00,,OVC070,0.00,9.00,VWS V14.00,2013-03-02 12:27:00,
2013-03-02 07:32:00,54.4,44.5,29.98,NNE,28,11.0,15.0,69,0.00,,OVC060,0.00,9.00,VWS V14.00,2013-03-02 12:32:00,
2013-03-02 07:37:00,54.4,44.5,29.99,North,360,7.0,12.0,69,0.00,,OVC060,0.00,7.00,VWS V14.00,2013-03-02 12:37:00,
2013-03-02 07:42:00,54.2,44.3,29.98,NNE,22,11.0,19.0,69,0.00,,OVC060,0.00,12.00,VWS V14.00,2013-03-02 12:42:00,
2013-03-02 07:47:00,54.1,44.5,29.98,NNE,29,8.0,13.0,70,0.00,,OVC060,0.00,16.00,VWS V14.00,2013-03-02 12:47:00,
2013-03-02 07:52:00,53.8,43.1,29.99,NE,36,12.0,14.0,67,0.00,,OVC060,0.00,18.00,VWS V14.00,2013-03-02 12:52:00,
2013-03-02 07:57:00,53.7,42.6,29.99,NNE,19,16.0,16.0,66,0.00,,OVC060,0.00,26.00,VWS V14.00,2013-03-02 12:57:00,
2013-03-02 08:02:00,53.7,43.0,29.99,NNE,17,4.0,15.0,67,0.00,,OVC060,0.00,23.00,VWS V14.00,2013-03-02 13:02:00,
2013-03-02 08:08:00,53.8,42.7,29.99,North,360,7.0,10.0,66,0.00,,OVC060,0.00,19.00,VWS V14.00,2013-03-02 13:08:00,
2013-03-02 08:13:00,53.8,42.7,29.99,NNE,15,7.0,7.0,66,0.00,,OVC060,0.00,30.00,VWS V14.00,2013-03-02 13:13:00,
2013-03-02 08:18:00,53.7,42.2,29.99,NNE,22,10.0,14.0,65,0.00,,OVC060,0.00,32.00,VWS V14.00,2013-03-02 13:18:00,
2013-03-02 08:23:00,53.7,42.2,29.99,North,5,11.0,12.0,65,0.00,,OVC060,0.00,33.00,VWS V14.00,2013-03-02 13:23:00,
2013-03-02 08:28:00,53.8,42.7,29.99,NNE,12,6.0,9.0,66,0.00,,OVC060,0.00,30.00,VWS V14.00,2013-03-02 13:28:00,
2013-03-02 08:33:00,53.8,42.7,29.99,NNE,12,4.0,10.0,66,0.00,,OVC060,0.00,35.00,VWS V14.00,2013-03-02 13:33:00,
2013-03-02 08:38:00,53.8,42.3,29.99,NNE,24,7.0,11.0,65,0.00,,OVC060,0.00,39.00,VWS V14.00,2013-03-02 13:38:00,
2013-03-02 08:43:00,53.7,42.6,29.99,NNE,15,4.0,9.0,66,0.00,,OVC060,0.00,44.00,VWS V14.00,2013-03-02 13:43:00,
2013-03-02 08:48:00,53.8,42.7,29.98,NE,49,5.0,6.0,66,0.00,,OVC060,0.00,40.00,VWS V14.00,2013-03-02 13:48:00,
2013-03-02 08:53:00,53.8,41.9,29.99,NNE,12,8.0,11.0,64,0.00,,OVC060,0.00,49.00,VWS V14.00,2013-03-02 13:53:00,
2013-03-02 08:58:00,53.7,41.0,29.99,NNE,30,9.0,12.0,62,0.00,,OVC060,0.00,53.00,VWS V14.00,2013-03-02 13:58:00,
2013-03-02 09:03:00,53.7,40.2,29.99,NE,41,5.0,8.0,60,0.00,,OVC060,0.00,46.00,VWS V14.00,2013-03-02 14:03:00,
2013-03-02 09:08:00,53.7,38.4,29.99,North,11,8.0,11.0,56,0.00,,OVC060,0.00,44.00,VWS V14.00,2013-03-02 14:08:00,
2013-03-02 09:13:00,53.9,38.1,29.99,NNE,22,3.0,7.0,55,0.00,,OVC060,0.00,54.00,VWS V14.00,2013-03-02 14:13:00,
2013-03-02 09:18:00,54.1,37.8,29.99,North,5,7.0,9.0,54,0.00,,OVC060,0.00,111.00,VWS V14.00,2013-03-02 14:18:00,
2013-03-02 09:23:00,54.4,38.1,29.99,North,10,3.0,6.0,54,0.00,,OVC060,0.00,95.00,VWS V14.00,2013-03-02 14:23:00,
2013-03-02 09:28:00,54.8,38.0,29.99,NNE,22,3.0,6.0,53,0.00,,OVC060,0.00,111.00,VWS V14.00,2013-03-02 14:28:00,
2013-03-02 09:33:00,55.1,36.8,29.99,NNE,13,5.0,11.0,50,0.00,,OVC090,0.00,70.00,VWS V14.00,2013-03-02 14:33:00,
2013-03-02 09:38:00,55.4,37.6,29.98,NNE,13,5.0,6.0,51,0.00,,OVC090,0.00,74.00,VWS V14.00,2013-03-02 14:38:00,
2013-03-02 09:43:00,55.7,37.4,29.98,NNE,12,4.0,8.0,50,0.00,,OVC090,0.00,81.00,VWS V14.00,2013-03-02 14:43:00,
2013-03-02 09:48:00,55.7,36.8,29.98,North,9,5.0,7.0,49,0.00,,OVC090,0.00,104.00,VWS V14.00,2013-03-02 14:48:00,
2013-03-02 09:53:00,55.8,37.5,29.99,North,5,3.0,9.0,50,0.00,,OVC090,0.00,77.00,VWS V14.00,2013-03-02 14:53:00,
2013-03-02 09:58:00,56.0,38.2,29.99,North,9,7.0,11.0,51,0.00,,OVC090,0.00,77.00,VWS V14.00,2013-03-02 14:58:00,
2013-03-02 10:03:00,56.0,37.6,29.98,North,11,3.0,5.0,50,0.00,,OVC090,0.00,90.00,VWS V14.00,2013-03-02 15:03:00,
2013-03-02 10:08:00,56.1,38.2,29.99,North,9,3.0,7.0,51,0.00,,OVC090,0.00,91.00,VWS V14.00,2013-03-02 15:08:00,
2013-03-02 10:13:00,56.2,38.3,29.99,North,9,3.0,5.0,51,0.00,,OVC090,0.00,97.00,VWS V14.00,2013-03-02 15:13:00,
2013-03-02 10:18:00,56.3,38.4,29.99,North,9,1.0,1.0,51,0.00,,OVC090,0.00,84.00,VWS V14.00,2013-03-02 15:18:00,
2013-03-02 10:23:00,56.6,38.2,29.99,NNE,24,3.0,3.0,50,0.00,,OVC090,0.00,90.00,VWS V14.00,2013-03-02 15:23:00,
2013-03-02 10:28:00,56.5,38.1,29.99,NNE,24,4.0,6.0,50,0.00,,OVC090,0.00,113.00,VWS V14.00,2013-03-02 15:28:00,
2013-03-02 10:33:00,56.9,38.5,29.99,NNE,27,4.0,8.0,50,0.00,,OVC090,0.00,130.00,VWS V14.00,2013-03-02 15:33:00,
2013-03-02 10:38:00,57.2,39.2,29.99,NNE,18,3.0,7.0,51,0.00,,OVC090,0.00,125.00,VWS V14.00,2013-03-02 15:38:00,
2013-03-02 10:43:00,57.6,38.1,29.99,North,360,7.0,7.0,48,0.00,,OVC090,0.00,118.00,VWS V14.00,2013-03-02 15:43:00,
2013-03-02 10:48:00,57.7,38.2,29.98,NNE,29,3.0,7.0,48,0.00,,OVC090,0.00,113.00,VWS V14.00,2013-03-02 15:48:00,
2013-03-02 10:53:00,57.9,38.3,29.98,North,5,6.0,10.0,48,0.00,,OVC090,0.00,102.00,VWS V14.00,2013-03-02 15:53:00,
2013-03-02 10:58:00,58.1,38.5,29.98,North,5,5.0,9.0,48,0.00,,OVC090,0.00,109.00,VWS V14.00,2013-03-02 15:58:00,
2013-03-02 11:03:00,58.2,38.6,29.97,North,9,5.0,10.0,48,0.00,,OVC090,0.00,121.00,VWS V14.00,2013-03-02 16:03:00,
2013-03-02 11:08:00,58.6,39.0,29.98,North,355,3.0,4.0,48,0.00,,OVC090,0.00,132.00,VWS V14.00,2013-03-02 16:08:00,
2013-03-02 11:13:00,58.9,38.7,29.98,NE,42,7.0,12.0,47,0.00,,OVC090,0.00,121.00,VWS V14.00,2013-03-02 16:13:00,
2013-03-02 11:18:00,58.8,38.6,29.97,NNE,26,12.0,12.0,47,0.00,,OVC090,0.00,116.00,VWS V14.00,2013-03-02 16:18:00,
2013-03-02 11:23:00,59.1,38.9,29.97,NNE,22,6.0,13.0,47,0.00,,OVC090,0.00,127.00,VWS V14.00,2013-03-02 16:23:00,
2013-03-02 11:28:00,59.3,39.1,29.97,North,360,6.0,9.0,47,0.00,,OVC090,0.00,91.00,VWS V14.00,2013-03-02 16:28:00,
2013-03-02 11:33:00,59.4,39.7,29.97,North,11,5.0,13.0,48,0.00,,OVC090,0.00,104.00,VWS V14.00,2013-03-02 16:33:00,
2013-03-02 11:38:00,59.3,39.1,29.97,North,5,11.0,13.0,47,0.00,,OVC090,0.00,105.00,VWS V14.00,2013-03-02 16:38:00,
2013-03-02 11:43:00,59.5,39.8,29.97,North,355,5.0,12.0,48,0.00,,OVC090,0.00,134.00,VWS V14.00,2013-03-02 16:43:00,
2013-03-02 11:48:00,59.8,40.1,29.97,NNW,346,3.0,8.0,48,0.00,,OVC090,0.00,104.00,VWS V14.00,2013-03-02 16:48:00,
2013-03-02 11:53:00,60.2,39.9,29.97,NNW,332,9.0,12.0,47,0.00,,OVC090,0.00,105.00,VWS V14.00,2013-03-02 16:53:00,
2013-03-02 11:58:00,60.1,39.8,29.96,NNE,12,9.0,12.0,47,0.00,,OVC090,0.00,169.00,VWS V14.00,2013-03-02 16:58:00,
2013-03-02 12:03:00,60.5,40.7,29.96,NNW,334,11.0,12.0,48,0.00,,OVC090,0.00,127.00,VWS V14.00,2013-03-02 17:03:00,
2013-03-02 12:08:00,60.9,40.0,29.96,North,360,10.0,15.0,46,0.00,,OVC090,0.00,202.00,VWS V14.00,2013-03-02 17:08:00,
2013-03-02 12:13:00,61.4,42.1,29.95,North,360,7.0,10.0,49,0.00,,OVC090,0.00,165.00,VWS V14.00,2013-03-02 17:13:00,
2013-03-02 12:18:00,61.7,41.3,29.94,NNE,17,10.0,16.0,47,0.00,,OVC090,0.00,192.00,VWS V14.00,2013-03-02 17:18:00,
2013-03-02 12:23:00,61.7,42.4,29.94,North,5,10.0,20.0,49,0.00,,OVC090,0.00,120.00,VWS V14.00,2013-03-02 17:23:00,
2013-03-02 12:28:00,61.7,41.8,29.94,North,5,11.0,15.0,48,0.00,,OVC090,0.00,135.00,VWS V14.00,2013-03-02 17:28:00,
2013-03-02 12:33:00,61.9,42.5,29.94,NNW,348,12.0,14.0,49,0.00,,OVC090,0.00,91.00,VWS V14.00,2013-03-02 17:33:00,
2013-03-02 12:38:00,62.0,42.6,29.94,NNW,342,9.0,15.0,49,0.00,,OVC090,0.00,149.00,VWS V14.00,2013-03-02 17:38:00,
2013-03-02 12:43:00,62.2,42.8,29.94,NNW,348,8.0,18.0,49,0.00,,OVC090,0.00,109.00,VWS V14.00,2013-03-02 17:43:00,
2013-03-02 12:48:00,61.9,43.1,29.94,NNW,345,11.0,15.0,50,0.00,,OVC090,0.00,125.00,VWS V14.00,2013-03-02 17:48:00,
2013-03-02 12:53:00,61.9,43.1,29.94,NNW,344,5.0,16.0,50,0.00,,OVC090,0.00,153.00,VWS V14.00,2013-03-02 17:53:00,
2013-03-02 12:58:00,62.2,43.9,29.94,North,5,4.0,15.0,51,0.00,,OVC090,0.00,142.00,VWS V14.00,2013-03-02 17:58:00,
2013-03-02 13:03:00,62.2,43.9,29.94,NNW,338,9.0,9.0,51,0.00,,OVC090,0.00,123.00,VWS V14.00,2013-03-02 18:03:00,
2013-03-02 13:08:00,62.5,44.2,29.94,North,355,5.0,15.0,51,0.00,,OVC090,0.00,155.00,VWS V14.00,2013-03-02 18:08:00,
2013-03-02 13:13:00,62.3,44.5,29.94,NNW,346,11.0,13.0,52,0.00,,OVC090,0.00,142.00,VWS V14.00,2013-03-02 18:13:00,
2013-03-02 13:18:00,62.2,44.4,29.94,North,360,14.0,14.0,52,0.00,,OVC090,0.00,118.00,VWS V14.00,2013-03-02 18:18:00,
2013-03-02 13:23:00,62.6,44.8,29.93,NNW,345,11.0,15.0,52,0.00,,OVC090,0.00,141.00,VWS V14.00,2013-03-02 18:23:00,
2013-03-02 13:28:00,63.1,45.2,29.92,WNW,294,11.0,14.0,52,0.00,,OVC090,0.00,162.00,VWS V14.00,2013-03-02 18:28:00,
2013-03-02 13:33:00,63.6,45.7,29.92,North,355,8.0,16.0,52,0.00,,SCT090,0.00,135.00,VWS V14.00,2013-03-02 18:33:00,
2013-03-02 13:38:00,63.8,45.9,29.92,NW,325,19.0,19.0,52,0.00,,SCT090,0.00,139.00,VWS V14.00,2013-03-02 18:38:00,
2013-03-02 13:43:00,63.4,46.0,29.92,NNW,327,15.0,22.0,53,0.00,,SCT090,0.00,125.00,VWS V14.00,2013-03-02 18:43:00,
2013-03-02 13:48:00,63.2,45.3,29.92,NNW,348,23.0,23.0,52,0.00,,SCT090,0.00,93.00,VWS V14.00,2013-03-02 18:48:00,
2013-03-02 13:53:00,63.1,45.7,29.92,North,360,18.0,25.0,53,0.00,,SCT090,0.00,167.00,VWS V14.00,2013-03-02 18:53:00,
2013-03-02 13:58:00,63.3,45.4,29.92,North,10,16.0,23.0,52,0.00,,SCT090,0.00,107.00,VWS V14.00,2013-03-02 18:58:00,
2013-03-02 14:04:00,63.1,45.7,29.91,NW,317,11.0,15.0,53,0.00,,SCT090,0.00,121.00,VWS V14.00,2013-03-02 19:04:00,
2013-03-02 14:09:00,63.1,45.2,29.91,NNE,13,19.0,19.0,52,0.00,,SCT090,0.00,95.00,VWS V14.00,2013-03-02 19:09:00,
2013-03-02 14:14:00,62.7,44.8,29.91,North,351,14.0,21.0,52,0.00,,SCT090,0.00,86.00,VWS V14.00,2013-03-02 19:14:00,
2013-03-02 14:19:00,62.9,45.5,29.91,WNW,299,11.0,14.0,53,0.00,,SCT090,0.00,167.00,VWS V14.00,2013-03-02 19:19:00,
2013-03-02 14:24:00,63.4,45.5,29.91,North,351,12.0,16.0,52,0.00,,SCT090,0.00,148.00,VWS V14.00,2013-03-02 19:24:00,
2013-03-02 14:29:00,63.3,44.4,29.92,NNE,22,18.0,18.0,50,0.00,,SCT090,0.00,156.00,VWS V14.00,2013-03-02 19:29:00,
2013-03-02 14:34:00,63.5,45.6,29.92,North,355,7.0,17.0,52,0.00,,SCT090,0.00,114.00,VWS V14.00,2013-03-02 19:34:00,
2013-03-02 14:39:00,63.4,45.5,29.92,North,355,13.0,13.0,52,0.00,,SCT090,0.00,128.00,VWS V14.00,2013-03-02 19:39:00,
2013-03-02 14:44:00,62.9,44.0,29.92,North,350,9.0,18.0,50,0.00,,SCT090,0.00,113.00,VWS V14.00,2013-03-02 19:44:00,
2013-03-02 14:49:00,62.3,44.0,29.92,North,5,11.0,21.0,51,0.00,,SCT090,0.00,120.00,VWS V14.00,2013-03-02 19:49:00,
2013-03-02 14:54:00,62.5,44.7,29.92,North,355,15.0,16.0,52,0.00,,SCT090,0.00,100.00,VWS V14.00,2013-03-02 19:54:00,
2013-03-02 14:59:00,62.9,45.0,29.92,NNW,329,10.0,16.0,52,0.00,,SCT090,0.00,146.00,VWS V14.00,2013-03-02 19:59:00,
2013-03-02 15:04:00,62.7,44.3,29.92,NNE,21,7.0,12.0,51,0.00,,SCT090,0.00,93.00,VWS V14.00,2013-03-02 20:04:00,
2013-03-02 15:09:00,62.2,43.9,29.91,NNW,340,10.0,17.0,51,0.00,,SCT090,0.00,105.00,VWS V14.00,2013-03-02 20:09:00,
2013-03-02 15:14:00,62.2,43.9,29.92,North,360,14.0,15.0,51,0.00,,SCT090,0.00,162.00,VWS V14.00,2013-03-02 20:14:00,
2013-03-02 15:19:00,62.2,44.4,29.92,WNW,298,13.0,18.0,52,0.00,,SCT090,0.00,123.00,VWS V14.00,2013-03-02 20:19:00,
2013-03-02 15:24:00,62.1,43.8,29.92,North,355,6.0,13.0,51,0.00,,SCT090,0.00,90.00,VWS V14.00,2013-03-02 20:24:00,
2013-03-02 15:29:00,62.2,43.3,29.92,NNW,333,16.0,20.0,50,0.00,,SCT090,0.00,111.00,VWS V14.00,2013-03-02 20:29:00,
2013-03-02 15:34:00,62.1,43.3,29.92,NW,319,12.0,21.0,50,0.00,,SCT080,0.00,123.00,VWS V14.00,2013-03-02 20:34:00,
2013-03-02 15:39:00,61.9,43.1,29.92,NNW,345,15.0,18.0,50,0.00,,SCT080,0.00,109.00,VWS V14.00,2013-03-02 20:39:00,
2013-03-02 15:44:00,61.6,42.8,29.92,NNW,336,16.0,16.0,50,0.00,,SCT080,0.00,102.00,VWS V14.00,2013-03-02 20:44:00,
2013-03-02 15:49:00,61.5,43.2,29.92,North,351,9.0,11.0,51,0.00,,SCT080,0.00,86.00,VWS V14.00,2013-03-02 20:49:00,
2013-03-02 15:54:00,61.5,42.7,29.92,NNW,341,5.0,14.0,50,0.00,,SCT080,0.00,81.00,VWS V14.00,2013-03-02 20:54:00,
2013-03-02 15:59:00,61.3,43.0,29.92,North,349,7.0,16.0,51,0.00,,SCT080,0.00,130.00,VWS V14.00,2013-03-02 20:59:00,
2013-03-02 16:04:00,61.5,42.2,29.92,NW,319,9.0,12.0,49,0.00,,SCT080,0.00,83.00,VWS V14.00,2013-03-02 21:04:00,
2013-03-02 16:09:00,61.6,42.8,29.92,WNW,296,8.0,14.0,50,0.00,,SCT080,0.00,81.00,VWS V14.00,2013-03-02 21:09:00,
2013-03-02 16:14:00,61.4,42.6,29.92,NNW,335,8.0,12.0,50,0.00,,SCT080,0.00,62.00,VWS V14.00,2013-03-02 21:14:00,
2013-03-02 16:19:00,61.3,43.0,29.92,North,350,10.0,11.0,51,0.00,,SCT080,0.00,114.00,VWS V14.00,2013-03-02 21:19:00,
2013-03-02 16:24:00,61.4,43.1,29.92,NW,322,5.0,7.0,51,0.00,,SCT080,0.00,114.00,VWS V14.00,2013-03-02 21:24:00,
2013-03-02 16:29:00,61.4,43.1,29.92,North,360,5.0,7.0,51,0.00,,SCT080,0.00,86.00,VWS V14.00,2013-03-02 21:29:00,
2013-03-02 16:34:00,61.1,42.8,29.92,NNW,327,3.0,6.0,51,0.00,,SCT080,0.00,77.00,VWS V14.00,2013-03-02 21:34:00,
2013-03-02 16:39:00,61.1,42.8,29.92,WNW,303,3.0,6.0,51,0.00,,SCT080,0.00,44.00,VWS V14.00,2013-03-02 21:39:00,
2013-03-02 16:44:00,60.9,43.2,29.92,NNW,329,1.0,6.0,52,0.00,,SCT080,0.00,44.00,VWS V14.00,2013-03-02 21:44:00,
2013-03-02 16:49:00,60.8,44.1,29.92,NNW,343,4.0,9.0,54,0.00,,SCT080,0.00,70.00,VWS V14.00,2013-03-02 21:49:00,
2013-03-02 16:54:00,60.9,43.7,29.92,NNW,344,6.0,8.0,53,0.00,,SCT080,0.00,76.00,VWS V14.00,2013-03-02 21:54:00,
2013-03-02 16:59:00,61.0,43.3,29.92,NNW,338,4.0,8.0,52,0.00,,SCT080,0.00,90.00,VWS V14.00,2013-03-02 21:59:00,
2013-03-02 17:04:00,61.0,43.3,29.92,NW,326,5.0,12.0,52,0.00,,SCT080,0.00,44.00,VWS V14.00,2013-03-02 22:04:00,
2013-03-02 17:09:00,60.8,43.6,29.93,NNW,334,2.0,7.0,53,0.00,,SCT080,0.00,46.00,VWS V14.00,2013-03-02 22:09:00,
2013-03-02 17:14:00,60.8,43.6,29.92,NW,323,5.0,9.0,53,0.00,,SCT080,0.00,69.00,VWS V14.00,2013-03-02 22:14:00,
2013-03-02 17:19:00,60.8,44.1,29.93,NW,318,6.0,11.0,54,0.00,,SCT080,0.00,37.00,VWS V14.00,2013-03-02 22:19:00,
2013-03-02 17:24:00,60.5,43.8,29.93,NNW,342,4.0,10.0,54,0.00,,SCT080,0.00,53.00,VWS V14.00,2013-03-02 22:24:00,
2013-03-02 17:29:00,60.5,44.3,29.93,NNW,342,7.0,8.0,55,0.00,,SCT080,0.00,51.00,VWS V14.00,2013-03-02 22:29:00,
2013-03-02 17:34:00,60.5,44.7,29.93,North,355,11.0,11.0,56,0.00,,SCT075,0.00,49.00,VWS V14.00,2013-03-02 22:34:00,
2013-03-02 17:39:00,60.4,44.7,29.94,NNE,13,4.0,10.0,56,0.00,,SCT075,0.00,42.00,VWS V14.00,2013-03-02 22:39:00,
2013-03-02 17:44:00,60.4,44.2,29.94,NNW,331,4.0,5.0,55,0.00,,SCT075,0.00,26.00,VWS V14.00,2013-03-02 22:44:00,
2013-03-02 17:49:00,60.2,44.9,29.94,North,351,6.0,14.0,57,0.00,,SCT075,0.00,18.00,VWS V14.00,2013-03-02 22:49:00,
2013-03-02 17:54:00,59.9,44.2,29.94,North,5,9.0,11.0,56,0.00,,SCT075,0.00,14.00,VWS V14.00,2013-03-02 22:54:00,
2013-03-02 17:59:00,59.8,44.1,29.94,North,350,4.0,6.0,56,0.00,,SCT075,0.00,11.00,VWS V14.00,2013-03-02 22:59:00,
2013-03-02 18:04:00,59.6,44.4,29.94,NNW,342,9.0,10.0,57,0.00,,SCT075,0.00,12.00,VWS V14.00,2013-03-02 23:04:00,
2013-03-02 18:09:00,59.4,44.6,29.94,NNW,336,4.0,7.0,58,0.00,,SCT075,0.00,11.00,VWS V14.00,2013-03-02 23:09:00,
2013-03-02 18:14:00,59.3,45.4,29.94,North,350,3.0,5.0,60,0.00,,SCT075,0.00,5.00,VWS V14.00,2013-03-02 23:14:00,
2013-03-02 18:19:00,59.0,45.2,29.94,NW,324,2.0,7.0,60,0.00,,SCT075,0.00,0.00,VWS V14.00,2013-03-02 23:19:00,
2013-03-02 18:24:00,58.6,44.3,29.95,North,349,1.0,14.0,59,0.00,,SCT075,0.00,0.00,VWS V14.00,2013-03-02 23:24:00,
2013-03-02 18:30:00,58.4,44.1,29.95,NNW,344,7.0,7.0,59,0.00,,SCT075,0.00,0.00,VWS V14.00,2013-03-02 23:30:00,
2013-03-02 18:35:00,58.1,43.9,29.95,NNW,336,7.0,9.0,59,0.00,,SCT075,0.00,0.00,VWS V14.00,2013-03-02 23:35:00,
2013-03-02 18:40:00,57.9,44.1,29.95,NNW,338,4.0,11.0,60,0.00,,SCT075,0.00,0.00,VWS V14.00,2013-03-02 23:40:00,
2013-03-02 18:45:00,57.8,44.5,29.95,NNW,337,5.0,10.0,61,0.00,,SCT075,0.00,0.00,VWS V14.00,2013-03-02 23:45:00,
2013-03-02 18:50:00,57.6,43.8,29.96,NW,319,10.0,10.0,60,0.00,,SCT075,0.00,0.00,VWS V14.00,2013-03-02 23:50:00,
2013-03-02 18:55:00,57.5,43.7,29.96,NNW,329,4.0,6.0,60,0.00,,SCT075,0.00,0.00,VWS V14.00,2013-03-02 23:55:00,
2013-03-02 19:00:00,57.3,44.0,29.96,NNW,347,2.0,3.0,61,0.00,,SCT075,0.00,0.00,VWS V14.00,2013-03-03 00:00:00,
2013-03-02 19:05:00,57.3,44.0,29.97,NNW,335,5.0,7.0,61,0.00,,SCT075,0.00,0.00,VWS V14.00,2013-03-03 00:05:00,
2013-03-02 19:10:00,57.2,43.9,29.97,NNW,343,3.0,9.0,61,0.00,,SCT090,0.00,0.00,VWS V14.00,2013-03-03 00:10:00,
2013-03-02 19:15:00,57.1,43.8,29.97,NNW,331,5.0,7.0,61,0.00,,SCT090,0.00,0.00,VWS V14.00,2013-03-03 00:15:00,
2013-03-02 19:20:00,57.1,43.8,29.97,North,355,3.0,7.0,61,0.00,,SCT090,0.00,0.00,VWS V14.00,2013-03-03 00:20:00,
2013-03-02 19:25:00,57.0,44.1,29.97,North,350,0.0,3.0,62,0.00,,SCT090,0.00,0.00,VWS V14.00,2013-03-03 00:25:00,
2013-03-02 19:30:00,56.9,43.6,29.97,North,349,0.0,1.0,61,0.00,,SCT090,0.00,0.00,VWS V14.00,2013-03-03 00:30:00,
2013-03-02 19:35:00,56.9,44.0,29.97,North,349,0.0,5.0,62,0.00,,SCT090,0.00,0.00,VWS V14.00,2013-03-03 00:35:00,
2013-03-02 19:40:00,56.9,44.0,29.98,NNW,347,2.0,5.0,62,0.00,,SCT090,0.00,0.00,VWS V14.00,2013-03-03 00:40:00,
2013-03-02 19:45:00,56.8,44.3,29.98,NNW,346,3.0,5.0,63,0.00,,SCT090,0.00,0.00,VWS V14.00,2013-03-03 00:45:00,
2013-03-02 19:50:00,56.8,44.3,29.98,NNW,340,0.0,1.0,63,0.00,,SCT090,0.00,0.00,VWS V14.00,2013-03-03 00:50:00,
2013-03-02 19:55:00,56.7,44.3,29.98,NNW,343,2.0,4.0,63,0.00,,SCT090,0.00,0.00,VWS V14.00,2013-03-03 00:55:00,
2013-03-02 20:00:00,56.6,44.2,29.98,NNW,342,0.0,3.0,63,0.00,,SCT090,0.00,0.00,VWS V14.00,2013-03-03 01:00:00,
2013-03-02 20:05:00,56.6,44.2,29.98,NNW,340,1.0,3.0,63,0.00,,SCT090,0.00,0.00,VWS V14.00,2013-03-03 01:05:00,
2013-03-02 20:10:00,56.5,44.1,29.98,NNW,339,0.0,1.0,63,0.00,,SCT090,0.00,0.00,VWS V14.00,2013-03-03 01:10:00,
2013-03-02 20:15:00,56.4,44.0,29.98,NNW,338,0.0,0.0,63,0.00,,SCT090,0.00,0.00,VWS V14.00,2013-03-03 01:15:00,
2013-03-02 20:20:00,56.3,43.9,29.98,NNW,339,0.0,0.0,63,0.00,,SCT090,0.00,0.00,VWS V14.00,2013-03-03 01:20:00,
2013-03-02 20:25:00,56.2,44.2,29.98,NNW,339,0.0,0.0,64,0.00,,SCT090,0.00,0.00,VWS V14.00,2013-03-03 01:25:00,
2013-03-02 20:30:00,56.1,44.5,29.98,NNW,338,0.0,1.0,65,0.00,,SCT090,0.00,0.00,VWS V14.00,2013-03-03 01:30:00,
2013-03-02 20:35:00,56.0,44.4,29.99,NNW,338,0.0,1.0,65,0.00,,SCT090,0.00,0.00,VWS V14.00,2013-03-03 01:35:00,
2013-03-02 20:40:00,55.9,44.3,29.99,NNW,338,0.0,1.0,65,0.00,,SCT090,0.00,0.00,VWS V14.00,2013-03-03 01:40:00,
2013-03-02 20:45:00,55.8,44.2,29.99,NNW,338,0.0,0.0,65,0.00,,SCT090,0.00,0.00,VWS V14.00,2013-03-03 01:45:00,
2013-03-02 20:50:00,55.7,44.5,29.98,NNW,338,0.0,0.0,66,0.00,,SCT090,0.00,0.00,VWS V14.00,2013-03-03 01:50:00,
2013-03-02 20:55:00,55.7,44.9,29.98,NNW,338,0.0,0.0,67,0.00,,SCT090,0.00,0.00,VWS V14.00,2013-03-03 01:55:00,
2013-03-02 21:00:00,55.5,44.7,29.98,NNW,338,0.0,0.0,67,0.00,,SCT090,0.00,0.00,VWS V14.00,2013-03-03 02:00:00,
2013-03-02 21:05:00,55.4,44.6,29.99,NNW,338,0.0,2.0,67,0.00,,SCT090,0.00,0.00,VWS V14.00,2013-03-03 02:05:00,
2013-03-02 21:10:00,55.4,44.6,29.99,NNW,338,0.0,2.0,67,0.00,,SCT090,0.00,0.00,VWS V14.00,2013-03-03 02:10:00,
2013-03-02 21:15:00,55.4,44.6,29.99,NNW,338,0.0,1.0,67,0.00,,SCT090,0.00,0.00,VWS V14.00,2013-03-03 02:15:00,
2013-03-02 21:20:00,55.3,44.5,29.99,NNW,338,0.0,0.0,67,0.00,,SCT090,0.00,0.00,VWS V14.00,2013-03-03 02:20:00,
2013-03-02 21:25:00,55.3,44.9,29.99,NNW,338,0.0,0.0,68,0.00,,SCT090,0.00,0.00,VWS V14.00,2013-03-03 02:25:00,
2013-03-02 21:30:00,55.3,44.9,29.99,NNW,338,0.0,0.0,68,0.00,,SCT090,0.00,0.00,VWS V14.00,2013-03-03 02:30:00,
2013-03-02 21:35:00,55.3,45.3,29.99,NNW,338,0.0,1.0,69,0.00,,SCT090,0.00,0.00,VWS V14.00,2013-03-03 02:35:00,
2013-03-02 21:41:00,55.2,45.2,29.99,NNW,338,0.0,0.0,69,0.00,,SCT090,0.00,0.00,VWS V14.00,2013-03-03 02:41:00,
2013-03-02 21:46:00,55.2,45.6,29.99,NNW,338,0.0,0.0,70,0.00,,SCT090,0.00,0.00,VWS V14.00,2013-03-03 02:46:00,
2013-03-02 21:51:00,55.1,45.5,29.99,NNW,338,1.0,1.0,70,0.00,,SCT090,0.00,0.00,VWS V14.00,2013-03-03 02:51:00,
2013-03-02 21:56:00,55.0,45.4,29.99,NNW,338,0.0,0.0,70,0.00,,SCT090,0.00,0.00,VWS V14.00,2013-03-03 02:56:00,
2013-03-02 22:01:00,54.8,45.2,29.99,NNW,338,0.0,0.0,70,0.00,,SCT090,0.00,0.00,VWS V14.00,2013-03-03 03:01:00,
2013-03-02 22:06:00,54.8,44.8,29.99,NNW,338,0.0,1.0,69,0.00,,SCT090,0.00,0.00,VWS V14.00,2013-03-03 03:06:00,
2013-03-02 22:11:00,54.7,45.1,29.99,NNW,338,0.0,0.0,70,0.00,,SCT090,0.00,0.00,VWS V14.00,2013-03-03 03:11:00,
2013-03-02 22:16:00,54.6,45.0,29.99,NNW,338,0.0,0.0,70,0.00,,SCT090,0.00,0.00,VWS V14.00,2013-03-03 03:16:00,
2013-03-02 22:21:00,54.5,44.9,30.00,NNW,338,0.0,0.0,70,0.00,,SCT090,0.00,0.00,VWS V14.00,2013-03-03 03:21:00,
2013-03-02 22:26:00,54.3,44.7,29.99,NNW,338,0.0,0.0,70,0.00,,SCT090,0.00,0.00,VWS V14.00,2013-03-03 03:26:00,
2013-03-02 22:31:00,54.1,44.5,29.99,NNW,338,0.0,0.0,70,0.00,,SCT090,0.00,0.00,VWS V14.00,2013-03-03 03:31:00,
2013-03-02 22:36:00,54.0,44.8,29.99,NNW,338,0.0,0.0,71,0.00,,SCT090,0.00,0.00,VWS V14.00,2013-03-03 03:36:00,
2013-03-02 22:41:00,53.7,44.5,29.99,NNW,338,0.0,0.0,71,0.00,,SCT090,0.00,0.00,VWS V14.00,2013-03-03 03:41:00,
2013-03-02 22:46:00,53.5,44.7,29.99,NNW,338,0.0,0.0,72,0.00,,SCT090,0.00,0.00,VWS V14.00,2013-03-03 03:46:00,
2013-03-02 22:51:00,53.4,44.6,29.99,NNW,338,0.0,0.0,72,0.00,,SCT090,0.00,0.00,VWS V14.00,2013-03-03 03:51:00,
2013-03-02 22:56:00,53.3,44.9,29.99,NNW,338,0.0,3.0,73,0.00,,SCT090,0.00,0.00,VWS V14.00,2013-03-03 03:56:00,
2013-03-02 23:01:00,53.3,44.9,29.98,NNW,338,0.0,0.0,73,0.00,,SCT090,0.00,0.00,VWS V14.00,2013-03-03 04:01:00,
2013-03-02 23:06:00,53.3,44.9,29.98,NNW,338,0.0,0.0,73,0.00,,SCT090,0.00,0.00,VWS V14.00,2013-03-03 04:06:00,
2013-03-02 23:11:00,53.2,44.8,29.98,NNW,338,0.0,0.0,73,0.00,,SCT090,0.00,0.00,VWS V14.00,2013-03-03 04:11:00,
2013-03-02 23:16:00,53.1,45.0,29.98,NNW,338,0.0,0.0,74,0.00,,SCT090,0.00,0.00,VWS V14.00,2013-03-03 04:16:00,
2013-03-02 23:21:00,53.0,45.0,29.97,NNW,338,0.0,0.0,74,0.00,,SCT090,0.00,0.00,VWS V14.00,2013-03-03 04:21:00,
2013-03-02 23:26:00,52.9,44.8,29.97,NNW,338,0.0,0.0,74,0.00,,SCT090,0.00,0.00,VWS V14.00,2013-03-03 04:26:00,
2013-03-02 23:31:00,52.8,44.8,29.97,NNW,338,0.0,0.0,74,0.00,,SCT090,0.00,0.00,VWS V14.00,2013-03-03 04:31:00,
2013-03-02 23:36:00,52.6,44.6,29.97,NNW,338,0.0,1.0,74,0.00,,SCT090,0.00,0.00,VWS V14.00,2013-03-03 04:36:00,
2013-03-02 23:41:00,52.6,44.6,29.98,NNW,338,0.0,0.0,74,0.00,,SCT090,0.00,0.00,VWS V14.00,2013-03-03 04:41:00,
2013-03-02 23:46:00,52.5,44.1,29.97,NNW,338,0.0,2.0,73,0.00,,SCT090,0.00,0.00,VWS V14.00,2013-03-03 04:46:00,
2013-03-02 23:51:00,52.5,44.1,29.97,NNW,338,0.0,0.0,73,0.00,,SCT090,0.00,0.00,VWS V14.00,2013-03-03 04:51:00,
2013-03-02 23:56:00,52.6,44.6,29.97,NNW,338,0.0,1.0,74,0.00,,SCT090,0.00,0.00,VWS V14.00,2013-03-03 04:56:00,